sensor_id;sensor_type;location;lat;lon;timestamp;temperature;humidity
17092;DHT22;8661;45.700;4.880;2023-05-20T00:02:11;13.80;99.90
17092;DHT22;8661;45.700;4.880;2023-05-20T00:04:38;13.80;99.90
17092;DHT22;8661;45.700;4.880;2023-05-20T00:07:06;13.80;99.90
17092;DHT22;8661;45.700;4.880;2023-05-20T00:09:33;13.70;99.90
17092;DHT22;8661;45.700;4.880;2023-05-20T00:12:00;13.70;99.90
17092;DHT22;8661;45.700;4.880;2023-05-20T00:14:27;13.70;99.90
17092;DHT22;8661;45.700;4.880;2023-05-20T00:16:54;13.70;99.90
17092;DHT22;8661;45.700;4.880;2023-05-20T00:19:22;13.70;99.90
17092;DHT22;8661;45.700;4.880;2023-05-20T00:21:49;13.70;99.90
17092;DHT22;8661;45.700;4.880;2023-05-20T00:24:19;13.70;99.90
17092;DHT22;8661;45.700;4.880;2023-05-20T00:26:48;13.60;99.90
17092;DHT22;8661;45.700;4.880;2023-05-20T00:29:15;13.60;99.90
17092;DHT22;8661;45.700;4.880;2023-05-20T00:31:42;13.60;99.90
17092;DHT22;8661;45.700;4.880;2023-05-20T00:34:09;13.60;99.90
17092;DHT22;8661;45.700;4.880;2023-05-20T00:36:37;13.60;99.90
17092;DHT22;8661;45.700;4.880;2023-05-20T00:39:04;13.60;99.90
17092;DHT22;8661;45.700;4.880;2023-05-20T00:41:31;13.60;99.90
17092;DHT22;8661;45.700;4.880;2023-05-20T00:43:58;13.60;99.90
17092;DHT22;8661;45.700;4.880;2023-05-20T00:46:25;13.60;99.90
17092;DHT22;8661;45.700;4.880;2023-05-20T00:48:53;13.60;99.90
17092;DHT22;8661;45.700;4.880;2023-05-20T00:51:20;13.60;99.90
17092;DHT22;8661;45.700;4.880;2023-05-20T00:53:49;13.60;99.90
17092;DHT22;8661;45.700;4.880;2023-05-20T00:56:16;13.60;99.90
17092;DHT22;8661;45.700;4.880;2023-05-20T00:58:44;13.60;99.90
17092;DHT22;8661;45.700;4.880;2023-05-20T01:01:11;13.60;99.90
17092;DHT22;8661;45.700;4.880;2023-05-20T01:03:39;13.60;99.90
17092;DHT22;8661;45.700;4.880;2023-05-20T01:06:06;13.60;99.90
17092;DHT22;8661;45.700;4.880;2023-05-20T01:08:33;13.60;99.90
17092;DHT22;8661;45.700;4.880;2023-05-20T01:11:04;13.70;99.90
17092;DHT22;8661;45.700;4.880;2023-05-20T01:13:37;13.70;99.90
17092;DHT22;8661;45.700;4.880;2023-05-20T01:16:06;13.70;99.90
17092;DHT22;8661;45.700;4.880;2023-05-20T01:18:35;13.70;99.90
17092;DHT22;8661;45.700;4.880;2023-05-20T01:21:02;13.70;99.90
17092;DHT22;8661;45.700;4.880;2023-05-20T01:23:36;13.70;99.90
17092;DHT22;8661;45.700;4.880;2023-05-20T01:26:03;13.70;99.90
17092;DHT22;8661;45.700;4.880;2023-05-20T01:28:31;13.70;99.90
17092;DHT22;8661;45.700;4.880;2023-05-20T01:30:59;13.70;99.90
17092;DHT22;8661;45.700;4.880;2023-05-20T01:33:28;13.70;99.90
17092;DHT22;8661;45.700;4.880;2023-05-20T01:35:56;13.70;99.90
17092;DHT22;8661;45.700;4.880;2023-05-20T01:38:25;13.70;99.90
17092;DHT22;8661;45.700;4.880;2023-05-20T01:40:56;13.70;99.90
17092;DHT22;8661;45.700;4.880;2023-05-20T01:43:24;13.70;99.90
17092;DHT22;8661;45.700;4.880;2023-05-20T01:45:52;13.70;99.90
17092;DHT22;8661;45.700;4.880;2023-05-20T01:48:19;13.80;99.90
17092;DHT22;8661;45.700;4.880;2023-05-20T01:50:45;13.80;99.90
17092;DHT22;8661;45.700;4.880;2023-05-20T01:53:13;13.70;99.90
17092;DHT22;8661;45.700;4.880;2023-05-20T01:55:40;13.70;99.90
17092;DHT22;8661;45.700;4.880;2023-05-20T01:58:08;13.70;99.90
17092;DHT22;8661;45.700;4.880;2023-05-20T02:00:35;13.70;99.90
17092;DHT22;8661;45.700;4.880;2023-05-20T02:03:02;13.80;99.90
17092;DHT22;8661;45.700;4.880;2023-05-20T02:05:29;13.80;99.90
17092;DHT22;8661;45.700;4.880;2023-05-20T02:08:00;13.80;99.90
17092;DHT22;8661;45.700;4.880;2023-05-20T02:10:30;13.80;99.90
17092;DHT22;8661;45.700;4.880;2023-05-20T02:12:59;13.80;99.90
17092;DHT22;8661;45.700;4.880;2023-05-20T02:15:27;13.80;99.90
17092;DHT22;8661;45.700;4.880;2023-05-20T02:17:54;13.80;99.90
17092;DHT22;8661;45.700;4.880;2023-05-20T02:20:22;13.80;99.90
17092;DHT22;8661;45.700;4.880;2023-05-20T02:22:49;13.80;99.90
17092;DHT22;8661;45.700;4.880;2023-05-20T02:25:23;13.80;99.90
17092;DHT22;8661;45.700;4.880;2023-05-20T02:27:53;13.80;99.90
17092;DHT22;8661;45.700;4.880;2023-05-20T02:30:20;13.70;99.90
17092;DHT22;8661;45.700;4.880;2023-05-20T02:32:48;13.70;99.90
17092;DHT22;8661;45.700;4.880;2023-05-20T02:35:15;13.70;99.90
17092;DHT22;8661;45.700;4.880;2023-05-20T02:37:42;13.70;99.90
17092;DHT22;8661;45.700;4.880;2023-05-20T02:40:10;13.70;99.90
17092;DHT22;8661;45.700;4.880;2023-05-20T02:42:37;13.70;99.90
17092;DHT22;8661;45.700;4.880;2023-05-20T02:45:05;13.60;99.90
17092;DHT22;8661;45.700;4.880;2023-05-20T02:47:32;13.60;99.90
17092;DHT22;8661;45.700;4.880;2023-05-20T02:50:01;13.50;99.90
17092;DHT22;8661;45.700;4.880;2023-05-20T02:52:28;13.40;99.90
17092;DHT22;8661;45.700;4.880;2023-05-20T02:54:54;13.40;99.90
17092;DHT22;8661;45.700;4.880;2023-05-20T02:57:22;13.40;99.90
17092;DHT22;8661;45.700;4.880;2023-05-20T02:59:49;13.40;99.90
17092;DHT22;8661;45.700;4.880;2023-05-20T03:02:16;13.30;99.90
17092;DHT22;8661;45.700;4.880;2023-05-20T03:04:43;13.30;99.90
17092;DHT22;8661;45.700;4.880;2023-05-20T03:07:13;13.30;99.90
17092;DHT22;8661;45.700;4.880;2023-05-20T03:09:44;13.30;99.90
17092;DHT22;8661;45.700;4.880;2023-05-20T03:12:10;13.20;99.90
17092;DHT22;8661;45.700;4.880;2023-05-20T03:14:37;13.30;99.90
17092;DHT22;8661;45.700;4.880;2023-05-20T03:17:04;13.20;99.90
17092;DHT22;8661;45.700;4.880;2023-05-20T03:19:31;13.30;99.90
17092;DHT22;8661;45.700;4.880;2023-05-20T03:21:58;13.30;99.90
17092;DHT22;8661;45.700;4.880;2023-05-20T03:24:27;13.30;99.90
17092;DHT22;8661;45.700;4.880;2023-05-20T03:26:54;13.30;99.90
17092;DHT22;8661;45.700;4.880;2023-05-20T03:29:22;13.30;99.90
17092;DHT22;8661;45.700;4.880;2023-05-20T03:31:49;13.30;99.90
17092;DHT22;8661;45.700;4.880;2023-05-20T03:34:16;13.30;99.90
17092;DHT22;8661;45.700;4.880;2023-05-20T03:36:42;13.30;99.90
17092;DHT22;8661;45.700;4.880;2023-05-20T03:39:10;13.30;99.90
17092;DHT22;8661;45.700;4.880;2023-05-20T03:41:39;13.30;99.90
17092;DHT22;8661;45.700;4.880;2023-05-20T03:44:06;13.30;99.90
17092;DHT22;8661;45.700;4.880;2023-05-20T03:46:32;13.30;99.90
17092;DHT22;8661;45.700;4.880;2023-05-20T03:48:59;13.40;99.90
17092;DHT22;8661;45.700;4.880;2023-05-20T03:51:30;13.40;99.90
17092;DHT22;8661;45.700;4.880;2023-05-20T03:53:56;13.40;99.90
17092;DHT22;8661;45.700;4.880;2023-05-20T03:56:23;13.40;99.90
17092;DHT22;8661;45.700;4.880;2023-05-20T03:58:52;13.40;99.90
17092;DHT22;8661;45.700;4.880;2023-05-20T04:01:19;13.40;99.90
17092;DHT22;8661;45.700;4.880;2023-05-20T04:03:50;13.40;99.90
17092;DHT22;8661;45.700;4.880;2023-05-20T04:06:19;13.40;99.90
17092;DHT22;8661;45.700;4.880;2023-05-20T04:08:47;13.40;99.90
17092;DHT22;8661;45.700;4.880;2023-05-20T04:11:13;13.40;99.90
17092;DHT22;8661;45.700;4.880;2023-05-20T04:13:41;13.40;99.90
17092;DHT22;8661;45.700;4.880;2023-05-20T04:16:10;13.40;99.90
17092;DHT22;8661;45.700;4.880;2023-05-20T04:18:37;13.40;99.90
17092;DHT22;8661;45.700;4.880;2023-05-20T04:21:05;13.40;99.90
17092;DHT22;8661;45.700;4.880;2023-05-20T04:23:32;13.40;99.90
17092;DHT22;8661;45.700;4.880;2023-05-20T04:25:59;13.40;99.90
17092;DHT22;8661;45.700;4.880;2023-05-20T04:28:27;13.50;99.90
17092;DHT22;8661;45.700;4.880;2023-05-20T04:30:59;13.50;99.90
17092;DHT22;8661;45.700;4.880;2023-05-20T04:33:28;13.50;99.90
17092;DHT22;8661;45.700;4.880;2023-05-20T04:35:56;13.50;99.90
17092;DHT22;8661;45.700;4.880;2023-05-20T04:38:23;13.50;99.90
17092;DHT22;8661;45.700;4.880;2023-05-20T04:40:54;13.50;99.90
17092;DHT22;8661;45.700;4.880;2023-05-20T04:43:23;13.60;99.90
17092;DHT22;8661;45.700;4.880;2023-05-20T04:45:50;13.60;99.90
17092;DHT22;8661;45.700;4.880;2023-05-20T04:48:18;13.70;99.90
17092;DHT22;8661;45.700;4.880;2023-05-20T04:50:48;13.70;99.90
17092;DHT22;8661;45.700;4.880;2023-05-20T04:53:16;13.80;99.90
17092;DHT22;8661;45.700;4.880;2023-05-20T04:55:44;13.90;99.90
17092;DHT22;8661;45.700;4.880;2023-05-20T04:58:11;13.90;99.90
17092;DHT22;8661;45.700;4.880;2023-05-20T05:00:40;14.00;99.90
17092;DHT22;8661;45.700;4.880;2023-05-20T05:03:07;14.10;99.90
17092;DHT22;8661;45.700;4.880;2023-05-20T05:05:34;14.20;99.90
17092;DHT22;8661;45.700;4.880;2023-05-20T05:08:04;14.20;99.90
17092;DHT22;8661;45.700;4.880;2023-05-20T05:10:31;14.30;99.90
17092;DHT22;8661;45.700;4.880;2023-05-20T05:12:58;14.40;99.90
17092;DHT22;8661;45.700;4.880;2023-05-20T05:15:26;14.50;99.90
17092;DHT22;8661;45.700;4.880;2023-05-20T05:17:53;14.50;99.90
17092;DHT22;8661;45.700;4.880;2023-05-20T05:20:20;14.50;99.90
17092;DHT22;8661;45.700;4.880;2023-05-20T05:22:48;14.50;99.90
17092;DHT22;8661;45.700;4.880;2023-05-20T05:25:16;14.50;99.90
17092;DHT22;8661;45.700;4.880;2023-05-20T05:27:43;14.50;99.90
17092;DHT22;8661;45.700;4.880;2023-05-20T05:30:13;14.60;99.90
17092;DHT22;8661;45.700;4.880;2023-05-20T05:32:40;14.60;99.90
17092;DHT22;8661;45.700;4.880;2023-05-20T05:35:08;14.60;99.90
17092;DHT22;8661;45.700;4.880;2023-05-20T05:37:35;14.70;99.90
17092;DHT22;8661;45.700;4.880;2023-05-20T05:40:02;14.70;99.90
17092;DHT22;8661;45.700;4.880;2023-05-20T05:42:30;14.70;99.90
17092;DHT22;8661;45.700;4.880;2023-05-20T05:44:57;14.80;99.90
17092;DHT22;8661;45.700;4.880;2023-05-20T05:47:24;14.80;99.90
17092;DHT22;8661;45.700;4.880;2023-05-20T05:49:56;14.90;99.90
17092;DHT22;8661;45.700;4.880;2023-05-20T05:52:22;15.00;99.90
17092;DHT22;8661;45.700;4.880;2023-05-20T05:54:49;15.10;99.90
17092;DHT22;8661;45.700;4.880;2023-05-20T05:57:16;15.20;99.90
17092;DHT22;8661;45.700;4.880;2023-05-20T05:59:44;15.30;99.90
17092;DHT22;8661;45.700;4.880;2023-05-20T06:02:11;15.40;99.90
17092;DHT22;8661;45.700;4.880;2023-05-20T06:04:39;15.60;99.90
17092;DHT22;8661;45.700;4.880;2023-05-20T06:07:06;15.70;99.90
17092;DHT22;8661;45.700;4.880;2023-05-20T06:09:33;15.80;99.90
17092;DHT22;8661;45.700;4.880;2023-05-20T06:11:59;15.80;99.90
17092;DHT22;8661;45.700;4.880;2023-05-20T06:14:27;15.80;99.90
17092;DHT22;8661;45.700;4.880;2023-05-20T06:16:55;15.80;99.90
17092;DHT22;8661;45.700;4.880;2023-05-20T06:19:22;15.80;99.90
17092;DHT22;8661;45.700;4.880;2023-05-20T06:21:48;15.80;99.90
17092;DHT22;8661;45.700;4.880;2023-05-20T06:24:15;15.90;99.90
17092;DHT22;8661;45.700;4.880;2023-05-20T06:26:42;16.00;99.90
17092;DHT22;8661;45.700;4.880;2023-05-20T06:29:10;16.10;99.90
17092;DHT22;8661;45.700;4.880;2023-05-20T06:31:37;16.30;99.90
17092;DHT22;8661;45.700;4.880;2023-05-20T06:34:05;16.40;99.90
17092;DHT22;8661;45.700;4.880;2023-05-20T06:36:32;16.50;99.90
17092;DHT22;8661;45.700;4.880;2023-05-20T06:38:59;16.60;99.90
17092;DHT22;8661;45.700;4.880;2023-05-20T06:41:26;16.70;99.90
17092;DHT22;8661;45.700;4.880;2023-05-20T06:43:53;16.80;99.90
17092;DHT22;8661;45.700;4.880;2023-05-20T06:46:20;16.90;99.90
17092;DHT22;8661;45.700;4.880;2023-05-20T06:48:46;17.10;99.90
17092;DHT22;8661;45.700;4.880;2023-05-20T06:51:15;17.20;99.90
17092;DHT22;8661;45.700;4.880;2023-05-20T06:53:42;17.40;99.90
17092;DHT22;8661;45.700;4.880;2023-05-20T06:56:08;17.50;99.90
17092;DHT22;8661;45.700;4.880;2023-05-20T06:58:35;17.70;99.90
17092;DHT22;8661;45.700;4.880;2023-05-20T07:01:02;17.90;99.90
17092;DHT22;8661;45.700;4.880;2023-05-20T07:03:29;18.20;99.90
17092;DHT22;8661;45.700;4.880;2023-05-20T07:05:56;18.30;99.90
17092;DHT22;8661;45.700;4.880;2023-05-20T07:08:24;18.40;99.90
17092;DHT22;8661;45.700;4.880;2023-05-20T07:10:54;18.60;99.90
17092;DHT22;8661;45.700;4.880;2023-05-20T07:13:20;19.00;99.90
17092;DHT22;8661;45.700;4.880;2023-05-20T07:15:48;19.50;99.90
17092;DHT22;8661;45.700;4.880;2023-05-20T07:18:15;19.90;99.90
17092;DHT22;8661;45.700;4.880;2023-05-20T07:20:43;20.20;99.90
17092;DHT22;8661;45.700;4.880;2023-05-20T07:23:10;20.50;99.90
17092;DHT22;8661;45.700;4.880;2023-05-20T07:25:38;20.70;99.70
17092;DHT22;8661;45.700;4.880;2023-05-20T07:28:05;21.20;98.60
17092;DHT22;8661;45.700;4.880;2023-05-20T07:30:32;21.60;97.20
17092;DHT22;8661;45.700;4.880;2023-05-20T07:32:59;21.90;96.10
17092;DHT22;8661;45.700;4.880;2023-05-20T07:35:25;22.30;95.40
17092;DHT22;8661;45.700;4.880;2023-05-20T07:37:52;22.40;94.30
17092;DHT22;8661;45.700;4.880;2023-05-20T07:40:19;22.50;94.30
17092;DHT22;8661;45.700;4.880;2023-05-20T07:42:47;23.30;93.10
17092;DHT22;8661;45.700;4.880;2023-05-20T07:45:14;23.50;92.10
17092;DHT22;8661;45.700;4.880;2023-05-20T07:47:41;23.70;91.40
17092;DHT22;8661;45.700;4.880;2023-05-20T07:50:08;24.10;89.80
17092;DHT22;8661;45.700;4.880;2023-05-20T07:52:35;24.60;89.00
17092;DHT22;8661;45.700;4.880;2023-05-20T07:55:03;24.80;87.30
17092;DHT22;8661;45.700;4.880;2023-05-20T07:57:30;24.80;86.90
17092;DHT22;8661;45.700;4.880;2023-05-20T07:59:58;25.20;86.00
17092;DHT22;8661;45.700;4.880;2023-05-20T08:02:25;25.70;83.70
17092;DHT22;8661;45.700;4.880;2023-05-20T08:04:52;25.70;82.60
17092;DHT22;8661;45.700;4.880;2023-05-20T08:07:19;25.70;81.90
17092;DHT22;8661;45.700;4.880;2023-05-20T08:09:46;25.90;82.40
17092;DHT22;8661;45.700;4.880;2023-05-20T08:12:13;26.00;81.00
17092;DHT22;8661;45.700;4.880;2023-05-20T08:14:40;26.20;80.10
17092;DHT22;8661;45.700;4.880;2023-05-20T08:17:09;26.80;79.40
17092;DHT22;8661;45.700;4.880;2023-05-20T08:19:36;27.20;77.30
17092;DHT22;8661;45.700;4.880;2023-05-20T08:22:03;27.20;76.40
17092;DHT22;8661;45.700;4.880;2023-05-20T08:24:31;27.20;75.90
17092;DHT22;8661;45.700;4.880;2023-05-20T08:26:57;27.10;76.50
17092;DHT22;8661;45.700;4.880;2023-05-20T08:29:25;27.20;76.10
17092;DHT22;8661;45.700;4.880;2023-05-20T08:31:52;27.30;76.30
17092;DHT22;8661;45.700;4.880;2023-05-20T08:34:20;27.40;74.90
17092;DHT22;8661;45.700;4.880;2023-05-20T08:36:47;27.10;74.10
17092;DHT22;8661;45.700;4.880;2023-05-20T08:39:14;26.90;74.80
17092;DHT22;8661;45.700;4.880;2023-05-20T08:41:41;26.90;74.20
17092;DHT22;8661;45.700;4.880;2023-05-20T08:44:08;26.90;75.40
17092;DHT22;8661;45.700;4.880;2023-05-20T08:46:36;27.00;74.10
17092;DHT22;8661;45.700;4.880;2023-05-20T08:49:04;27.00;73.10
17092;DHT22;8661;45.700;4.880;2023-05-20T08:51:32;27.10;74.40
17092;DHT22;8661;45.700;4.880;2023-05-20T08:54:02;27.20;73.40
17092;DHT22;8661;45.700;4.880;2023-05-20T08:56:29;27.30;73.20
17092;DHT22;8661;45.700;4.880;2023-05-20T08:58:57;27.40;73.70
17092;DHT22;8661;45.700;4.880;2023-05-20T09:01:24;27.40;72.20
17092;DHT22;8661;45.700;4.880;2023-05-20T09:03:51;27.20;71.90
17092;DHT22;8661;45.700;4.880;2023-05-20T09:06:18;27.20;72.80
17092;DHT22;8661;45.700;4.880;2023-05-20T09:08:48;27.40;72.50
17092;DHT22;8661;45.700;4.880;2023-05-20T09:11:16;27.30;71.70
17092;DHT22;8661;45.700;4.880;2023-05-20T09:13:43;27.60;71.50
17092;DHT22;8661;45.700;4.880;2023-05-20T09:16:10;27.90;71.10
17092;DHT22;8661;45.700;4.880;2023-05-20T09:18:37;28.00;70.60
17092;DHT22;8661;45.700;4.880;2023-05-20T09:21:05;28.00;70.50
17092;DHT22;8661;45.700;4.880;2023-05-20T09:23:32;28.40;69.90
17092;DHT22;8661;45.700;4.880;2023-05-20T09:26:01;28.30;70.20
17092;DHT22;8661;45.700;4.880;2023-05-20T09:28:28;28.30;69.20
17092;DHT22;8661;45.700;4.880;2023-05-20T09:30:57;28.40;69.70
17092;DHT22;8661;45.700;4.880;2023-05-20T09:33:27;28.30;68.70
17092;DHT22;8661;45.700;4.880;2023-05-20T09:36:02;28.40;68.50
17092;DHT22;8661;45.700;4.880;2023-05-20T09:38:30;28.50;67.60
17092;DHT22;8661;45.700;4.880;2023-05-20T09:41:06;28.60;69.10
17092;DHT22;8661;45.700;4.880;2023-05-20T09:43:34;28.50;68.00
17092;DHT22;8661;45.700;4.880;2023-05-20T09:46:03;28.10;68.00
17092;DHT22;8661;45.700;4.880;2023-05-20T09:48:30;28.00;68.70
17092;DHT22;8661;45.700;4.880;2023-05-20T09:50:57;28.20;69.00
17092;DHT22;8661;45.700;4.880;2023-05-20T09:53:26;28.80;67.40
17092;DHT22;8661;45.700;4.880;2023-05-20T09:55:54;28.80;66.80
17092;DHT22;8661;45.700;4.880;2023-05-20T09:58:23;28.60;67.80
17092;DHT22;8661;45.700;4.880;2023-05-20T10:00:51;28.20;67.50
17092;DHT22;8661;45.700;4.880;2023-05-20T10:03:21;28.30;67.70
17092;DHT22;8661;45.700;4.880;2023-05-20T10:05:57;28.20;67.70
17092;DHT22;8661;45.700;4.880;2023-05-20T10:11:25;28.00;69.30
17092;DHT22;8661;45.700;4.880;2023-05-20T10:14:14;28.00;68.40
17092;DHT22;8661;45.700;4.880;2023-05-20T10:16:47;27.90;67.70
17092;DHT22;8661;45.700;4.880;2023-05-20T10:19:26;27.90;68.70
17092;DHT22;8661;45.700;4.880;2023-05-20T10:21:59;28.30;68.10
17092;DHT22;8661;45.700;4.880;2023-05-20T10:24:30;28.20;67.90
17092;DHT22;8661;45.700;4.880;2023-05-20T10:26:58;28.00;68.00
17092;DHT22;8661;45.700;4.880;2023-05-20T10:29:28;27.80;68.30
17092;DHT22;8661;45.700;4.880;2023-05-20T10:31:58;27.50;68.70
17092;DHT22;8661;45.700;4.880;2023-05-20T10:34:27;27.30;69.30
17092;DHT22;8661;45.700;4.880;2023-05-20T10:36:57;27.20;69.50
17092;DHT22;8661;45.700;4.880;2023-05-20T10:39:26;27.10;69.60
17092;DHT22;8661;45.700;4.880;2023-05-20T10:42:05;26.90;71.00
17092;DHT22;8661;45.700;4.880;2023-05-20T10:44:43;26.90;70.90
17092;DHT22;8661;45.700;4.880;2023-05-20T10:47:10;26.90;70.70
17092;DHT22;8661;45.700;4.880;2023-05-20T10:49:40;26.90;70.40
17092;DHT22;8661;45.700;4.880;2023-05-20T10:52:09;27.00;70.60
17092;DHT22;8661;45.700;4.880;2023-05-20T10:54:42;26.90;70.50
17092;DHT22;8661;45.700;4.880;2023-05-20T10:57:10;26.90;70.50
17092;DHT22;8661;45.700;4.880;2023-05-20T10:59:38;27.30;70.00
17092;DHT22;8661;45.700;4.880;2023-05-20T11:02:07;27.50;69.90
17092;DHT22;8661;45.700;4.880;2023-05-20T11:04:36;27.90;69.70
17092;DHT22;8661;45.700;4.880;2023-05-20T11:07:04;28.10;69.00
17092;DHT22;8661;45.700;4.880;2023-05-20T11:09:31;28.20;69.00
17092;DHT22;8661;45.700;4.880;2023-05-20T11:11:59;28.50;68.40
17092;DHT22;8661;45.700;4.880;2023-05-20T11:14:27;28.60;68.90
17092;DHT22;8661;45.700;4.880;2023-05-20T11:16:55;28.50;68.00
17092;DHT22;8661;45.700;4.880;2023-05-20T11:19:24;28.40;68.70
17092;DHT22;8661;45.700;4.880;2023-05-20T11:21:52;28.00;68.80
17092;DHT22;8661;45.700;4.880;2023-05-20T11:24:23;27.60;68.50
17092;DHT22;8661;45.700;4.880;2023-05-20T11:26:51;27.70;69.20
17092;DHT22;8661;45.700;4.880;2023-05-20T11:29:18;27.20;69.40
17092;DHT22;8661;45.700;4.880;2023-05-20T11:31:47;27.00;70.40
17092;DHT22;8661;45.700;4.880;2023-05-20T11:34:14;26.90;70.60
17092;DHT22;8661;45.700;4.880;2023-05-20T11:36:42;27.00;70.80
17092;DHT22;8661;45.700;4.880;2023-05-20T11:39:10;26.90;71.20
17092;DHT22;8661;45.700;4.880;2023-05-20T11:41:41;27.20;70.90
17092;DHT22;8661;45.700;4.880;2023-05-20T11:44:09;27.40;70.60
17092;DHT22;8661;45.700;4.880;2023-05-20T11:46:41;27.60;70.40
17092;DHT22;8661;45.700;4.880;2023-05-20T11:49:08;28.10;69.10
17092;DHT22;8661;45.700;4.880;2023-05-20T11:51:37;28.10;69.30
17092;DHT22;8661;45.700;4.880;2023-05-20T11:54:06;28.60;69.00
17092;DHT22;8661;45.700;4.880;2023-05-20T11:56:34;29.30;66.90
17092;DHT22;8661;45.700;4.880;2023-05-20T11:59:02;28.50;66.00
17092;DHT22;8661;45.700;4.880;2023-05-20T12:01:30;28.70;67.20
17092;DHT22;8661;45.700;4.880;2023-05-20T12:03:58;28.80;67.30
17092;DHT22;8661;45.700;4.880;2023-05-20T12:06:25;28.70;68.10
17092;DHT22;8661;45.700;4.880;2023-05-20T12:08:52;28.60;67.30
17092;DHT22;8661;45.700;4.880;2023-05-20T12:11:20;28.50;67.20
17092;DHT22;8661;45.700;4.880;2023-05-20T12:13:47;28.30;67.00
17092;DHT22;8661;45.700;4.880;2023-05-20T12:16:14;28.00;68.10
17092;DHT22;8661;45.700;4.880;2023-05-20T12:18:41;27.70;68.20
17092;DHT22;8661;45.700;4.880;2023-05-20T12:21:08;27.60;69.20
17092;DHT22;8661;45.700;4.880;2023-05-20T12:23:35;27.80;68.20
17092;DHT22;8661;45.700;4.880;2023-05-20T12:26:02;27.80;68.90
17092;DHT22;8661;45.700;4.880;2023-05-20T12:28:31;27.90;68.90
17092;DHT22;8661;45.700;4.880;2023-05-20T12:30:58;27.70;69.50
17092;DHT22;8661;45.700;4.880;2023-05-20T12:33:25;27.60;69.80
17092;DHT22;8661;45.700;4.880;2023-05-20T12:35:53;27.10;70.10
17092;DHT22;8661;45.700;4.880;2023-05-20T12:38:20;26.90;70.80
17092;DHT22;8661;45.700;4.880;2023-05-20T12:40:47;26.80;70.50
17092;DHT22;8661;45.700;4.880;2023-05-20T12:43:14;26.80;70.70
17092;DHT22;8661;45.700;4.880;2023-05-20T12:45:42;26.50;70.90
17092;DHT22;8661;45.700;4.880;2023-05-20T12:48:09;26.40;72.40
17092;DHT22;8661;45.700;4.880;2023-05-20T12:50:36;26.20;72.30
17092;DHT22;8661;45.700;4.880;2023-05-20T12:53:03;26.40;72.20
17092;DHT22;8661;45.700;4.880;2023-05-20T12:55:30;26.40;72.50
17092;DHT22;8661;45.700;4.880;2023-05-20T12:57:56;26.50;72.70
17092;DHT22;8661;45.700;4.880;2023-05-20T13:00:23;26.60;72.00
17092;DHT22;8661;45.700;4.880;2023-05-20T13:02:52;26.60;71.60
17092;DHT22;8661;45.700;4.880;2023-05-20T13:05:19;26.40;72.00
17092;DHT22;8661;45.700;4.880;2023-05-20T13:07:46;26.20;72.50
17092;DHT22;8661;45.700;4.880;2023-05-20T13:10:14;26.10;72.50
17092;DHT22;8661;45.700;4.880;2023-05-20T13:12:41;26.30;72.20
17092;DHT22;8661;45.700;4.880;2023-05-20T13:15:11;26.30;72.10
17092;DHT22;8661;45.700;4.880;2023-05-20T13:17:39;26.20;72.40
17092;DHT22;8661;45.700;4.880;2023-05-20T13:20:08;26.10;73.10
17092;DHT22;8661;45.700;4.880;2023-05-20T13:22:36;25.90;74.20
17092;DHT22;8661;45.700;4.880;2023-05-20T13:25:04;25.70;73.50
17092;DHT22;8661;45.700;4.880;2023-05-20T13:27:31;25.70;74.40
17092;DHT22;8661;45.700;4.880;2023-05-20T13:29:58;25.60;75.00
17092;DHT22;8661;45.700;4.880;2023-05-20T13:32:26;25.40;75.50
17092;DHT22;8661;45.700;4.880;2023-05-20T13:34:53;25.30;75.50
17092;DHT22;8661;45.700;4.880;2023-05-20T13:37:22;25.20;75.30
17092;DHT22;8661;45.700;4.880;2023-05-20T13:39:50;25.10;75.60
17092;DHT22;8661;45.700;4.880;2023-05-20T13:42:17;24.90;75.60
17092;DHT22;8661;45.700;4.880;2023-05-20T13:44:43;24.80;75.40
17092;DHT22;8661;45.700;4.880;2023-05-20T13:47:11;24.80;75.50
17092;DHT22;8661;45.700;4.880;2023-05-20T13:49:38;24.80;75.90
17092;DHT22;8661;45.700;4.880;2023-05-20T13:52:05;24.60;76.50
17092;DHT22;8661;45.700;4.880;2023-05-20T13:54:35;24.40;77.60
17092;DHT22;8661;45.700;4.880;2023-05-20T13:57:02;24.30;78.20
17092;DHT22;8661;45.700;4.880;2023-05-20T13:59:32;24.20;78.50
17092;DHT22;8661;45.700;4.880;2023-05-20T14:01:59;24.20;78.20
17092;DHT22;8661;45.700;4.880;2023-05-20T14:04:26;24.20;78.00
17092;DHT22;8661;45.700;4.880;2023-05-20T14:06:53;24.10;79.10
17092;DHT22;8661;45.700;4.880;2023-05-20T14:09:20;24.10;79.70
17092;DHT22;8661;45.700;4.880;2023-05-20T14:11:49;24.00;80.60
17092;DHT22;8661;45.700;4.880;2023-05-20T14:14:16;24.00;80.30
17092;DHT22;8661;45.700;4.880;2023-05-20T14:16:43;24.10;79.60
17092;DHT22;8661;45.700;4.880;2023-05-20T14:19:10;24.10;79.70
17092;DHT22;8661;45.700;4.880;2023-05-20T14:21:36;24.30;80.30
17092;DHT22;8661;45.700;4.880;2023-05-20T14:24:04;24.40;79.20
17092;DHT22;8661;45.700;4.880;2023-05-20T14:26:32;24.40;78.30
17092;DHT22;8661;45.700;4.880;2023-05-20T14:29:00;24.50;77.80
17092;DHT22;8661;45.700;4.880;2023-05-20T14:31:27;24.50;77.90
17092;DHT22;8661;45.700;4.880;2023-05-20T14:33:57;24.40;78.50
17092;DHT22;8661;45.700;4.880;2023-05-20T14:36:24;24.30;78.70
17092;DHT22;8661;45.700;4.880;2023-05-20T14:38:51;24.20;79.80
17092;DHT22;8661;45.700;4.880;2023-05-20T14:41:17;24.10;80.60
17092;DHT22;8661;45.700;4.880;2023-05-20T14:43:44;24.10;81.10
17092;DHT22;8661;45.700;4.880;2023-05-20T14:46:13;24.00;80.90
17092;DHT22;8661;45.700;4.880;2023-05-20T14:48:40;24.00;80.60
17092;DHT22;8661;45.700;4.880;2023-05-20T14:51:07;24.00;80.00
17092;DHT22;8661;45.700;4.880;2023-05-20T14:53:33;24.10;79.50
17092;DHT22;8661;45.700;4.880;2023-05-20T14:56:00;24.10;79.10
17092;DHT22;8661;45.700;4.880;2023-05-20T14:58:27;24.00;79.50
17092;DHT22;8661;45.700;4.880;2023-05-20T15:00:54;23.80;80.20
17092;DHT22;8661;45.700;4.880;2023-05-20T15:03:22;23.70;80.40
17092;DHT22;8661;45.700;4.880;2023-05-20T15:05:49;23.80;80.60
17092;DHT22;8661;45.700;4.880;2023-05-20T15:08:17;23.70;81.00
17092;DHT22;8661;45.700;4.880;2023-05-20T15:10:44;23.70;81.00
17092;DHT22;8661;45.700;4.880;2023-05-20T15:13:11;23.60;81.80
17092;DHT22;8661;45.700;4.880;2023-05-20T15:15:41;23.50;82.10
17092;DHT22;8661;45.700;4.880;2023-05-20T15:18:08;23.40;83.30
17092;DHT22;8661;45.700;4.880;2023-05-20T15:20:36;23.30;83.30
17092;DHT22;8661;45.700;4.880;2023-05-20T15:23:03;23.20;82.80
17092;DHT22;8661;45.700;4.880;2023-05-20T15:25:30;22.90;83.90
17092;DHT22;8661;45.700;4.880;2023-05-20T15:27:57;22.80;84.30
17092;DHT22;8661;45.700;4.880;2023-05-20T15:30:24;22.80;84.60
17092;DHT22;8661;45.700;4.880;2023-05-20T15:32:51;22.70;84.60
17092;DHT22;8661;45.700;4.880;2023-05-20T15:35:18;22.60;84.00
17092;DHT22;8661;45.700;4.880;2023-05-20T15:37:46;22.60;83.80
17092;DHT22;8661;45.700;4.880;2023-05-20T15:40:13;22.60;83.50
17092;DHT22;8661;45.700;4.880;2023-05-20T15:42:41;22.60;83.40
17092;DHT22;8661;45.700;4.880;2023-05-20T15:45:09;22.50;84.00
17092;DHT22;8661;45.700;4.880;2023-05-20T15:47:36;22.50;84.90
17092;DHT22;8661;45.700;4.880;2023-05-20T15:50:04;22.50;84.90
17092;DHT22;8661;45.700;4.880;2023-05-20T15:52:32;22.40;85.30